sensor_id;sensor_type;location;lat;lon;timestamp;temperature;humidity
26703;DHT22;14316;51.074;3.704;2022-11-23T00:02:17;8.90;99.90
26703;DHT22;14316;51.074;3.704;2022-11-23T00:04:43;9.00;99.90
26703;DHT22;14316;51.074;3.704;2022-11-23T00:07:09;9.00;99.90
26703;DHT22;14316;51.074;3.704;2022-11-23T00:09:34;9.00;99.90
26703;DHT22;14316;51.074;3.704;2022-11-23T00:12:00;9.00;99.90
26703;DHT22;14316;51.074;3.704;2022-11-23T00:14:25;9.10;99.90
26703;DHT22;14316;51.074;3.704;2022-11-23T00:16:52;9.00;99.90
26703;DHT22;14316;51.074;3.704;2022-11-23T00:19:17;9.00;99.90
26703;DHT22;14316;51.074;3.704;2022-11-23T00:21:43;9.10;99.90
26703;DHT22;14316;51.074;3.704;2022-11-23T00:24:11;9.00;99.90
26703;DHT22;14316;51.074;3.704;2022-11-23T00:26:37;9.00;99.90
26703;DHT22;14316;51.074;3.704;2022-11-23T00:29:03;9.00;99.90
26703;DHT22;14316;51.074;3.704;2022-11-23T00:31:29;9.30;99.90
26703;DHT22;14316;51.074;3.704;2022-11-23T00:33:55;9.00;99.90
26703;DHT22;14316;51.074;3.704;2022-11-23T00:36:22;9.10;99.90
26703;DHT22;14316;51.074;3.704;2022-11-23T00:38:49;9.00;99.90
26703;DHT22;14316;51.074;3.704;2022-11-23T00:41:18;9.00;99.90
26703;DHT22;14316;51.074;3.704;2022-11-23T00:43:44;9.00;99.90
26703;DHT22;14316;51.074;3.704;2022-11-23T00:46:14;9.20;99.90
26703;DHT22;14316;51.074;3.704;2022-11-23T00:48:41;9.00;99.90
26703;DHT22;14316;51.074;3.704;2022-11-23T00:51:09;9.20;99.90
26703;DHT22;14316;51.074;3.704;2022-11-23T00:53:35;9.00;99.90
26703;DHT22;14316;51.074;3.704;2022-11-23T00:56:01;8.90;99.90
26703;DHT22;14316;51.074;3.704;2022-11-23T00:58:27;8.90;99.90
26703;DHT22;14316;51.074;3.704;2022-11-23T01:03:31;8.90;99.90
26703;DHT22;14316;51.074;3.704;2022-11-23T01:06:09;8.90;99.90
26703;DHT22;14316;51.074;3.704;2022-11-23T01:08:36;9.00;99.90
26703;DHT22;14316;51.074;3.704;2022-11-23T01:11:07;8.90;99.90
26703;DHT22;14316;51.074;3.704;2022-11-23T01:13:33;8.90;99.90
26703;DHT22;14316;51.074;3.704;2022-11-23T01:15:59;9.30;99.90
26703;DHT22;14316;51.074;3.704;2022-11-23T01:18:25;9.00;99.90
26703;DHT22;14316;51.074;3.704;2022-11-23T01:20:50;9.00;99.90
26703;DHT22;14316;51.074;3.704;2022-11-23T01:23:16;9.00;99.90
26703;DHT22;14316;51.074;3.704;2022-11-23T01:25:42;9.00;99.90
26703;DHT22;14316;51.074;3.704;2022-11-23T01:28:08;9.30;99.90
26703;DHT22;14316;51.074;3.704;2022-11-23T01:30:34;9.00;99.90
26703;DHT22;14316;51.074;3.704;2022-11-23T01:33:01;9.00;99.90
26703;DHT22;14316;51.074;3.704;2022-11-23T01:35:28;9.00;99.90
26703;DHT22;14316;51.074;3.704;2022-11-23T01:37:54;9.00;99.90
26703;DHT22;14316;51.074;3.704;2022-11-23T01:40:20;9.00;99.90
26703;DHT22;14316;51.074;3.704;2022-11-23T01:45:37;9.10;99.90
26703;DHT22;14316;51.074;3.704;2022-11-23T01:48:08;9.10;99.90
26703;DHT22;14316;51.074;3.704;2022-11-23T01:50:36;9.20;99.90
26703;DHT22;14316;51.074;3.704;2022-11-23T01:53:02;9.10;99.90
26703;DHT22;14316;51.074;3.704;2022-11-23T01:55:29;9.70;99.90
26703;DHT22;14316;51.074;3.704;2022-11-23T01:57:55;9.00;99.90
26703;DHT22;14316;51.074;3.704;2022-11-23T02:00:21;9.10;99.90
26703;DHT22;14316;51.074;3.704;2022-11-23T02:02:51;9.00;99.90
26703;DHT22;14316;51.074;3.704;2022-11-23T02:05:19;8.90;99.90
26703;DHT22;14316;51.074;3.704;2022-11-23T02:07:47;9.00;99.90
26703;DHT22;14316;51.074;3.704;2022-11-23T02:10:15;8.90;99.90
26703;DHT22;14316;51.074;3.704;2022-11-23T02:12:40;8.90;99.90
26703;DHT22;14316;51.074;3.704;2022-11-23T02:15:06;9.10;99.90
26703;DHT22;14316;51.074;3.704;2022-11-23T02:17:32;8.80;99.90
26703;DHT22;14316;51.074;3.704;2022-11-23T02:20:08;8.80;99.90
26703;DHT22;14316;51.074;3.704;2022-11-23T02:28:23;8.70;99.90
26703;DHT22;14316;51.074;3.704;2022-11-23T02:30:52;8.60;99.90
26703;DHT22;14316;51.074;3.704;2022-11-23T02:33:21;8.60;99.90
26703;DHT22;14316;51.074;3.704;2022-11-23T02:35:56;8.60;99.90
26703;DHT22;14316;51.074;3.704;2022-11-23T02:38:24;8.70;99.90
26703;DHT22;14316;51.074;3.704;2022-11-23T02:40:51;8.60;99.90
26703;DHT22;14316;51.074;3.704;2022-11-23T02:43:17;8.60;99.90
26703;DHT22;14316;51.074;3.704;2022-11-23T02:45:52;9.00;99.90
26703;DHT22;14316;51.074;3.704;2022-11-23T02:48:19;8.60;99.90
26703;DHT22;14316;51.074;3.704;2022-11-23T02:50:45;8.60;99.90
26703;DHT22;14316;51.074;3.704;2022-11-23T02:53:12;8.60;99.90
26703;DHT22;14316;51.074;3.704;2022-11-23T02:55:38;8.80;99.90
26703;DHT22;14316;51.074;3.704;2022-11-23T02:58:04;8.50;99.90
26703;DHT22;14316;51.074;3.704;2022-11-23T03:00:31;8.50;99.90
26703;DHT22;14316;51.074;3.704;2022-11-23T03:02:58;8.50;99.90
26703;DHT22;14316;51.074;3.704;2022-11-23T03:05:24;8.50;99.90
26703;DHT22;14316;51.074;3.704;2022-11-23T03:07:51;8.50;99.90
26703;DHT22;14316;51.074;3.704;2022-11-23T03:10:17;8.40;99.90
26703;DHT22;14316;51.074;3.704;2022-11-23T03:12:43;8.40;99.90
26703;DHT22;14316;51.074;3.704;2022-11-23T03:15:09;8.50;99.90
26703;DHT22;14316;51.074;3.704;2022-11-23T03:17:35;8.50;99.90
26703;DHT22;14316;51.074;3.704;2022-11-23T03:20:02;8.60;99.90
26703;DHT22;14316;51.074;3.704;2022-11-23T03:22:28;8.50;99.90
26703;DHT22;14316;51.074;3.704;2022-11-23T03:24:54;8.50;99.90
26703;DHT22;14316;51.074;3.704;2022-11-23T03:27:20;8.40;99.90
26703;DHT22;14316;51.074;3.704;2022-11-23T03:29:46;8.60;99.90
26703;DHT22;14316;51.074;3.704;2022-11-23T03:32:12;8.30;99.90
26703;DHT22;14316;51.074;3.704;2022-11-23T03:34:38;8.30;99.90
26703;DHT22;14316;51.074;3.704;2022-11-23T03:37:04;8.30;99.90
26703;DHT22;14316;51.074;3.704;2022-11-23T03:39:30;8.30;99.90
26703;DHT22;14316;51.074;3.704;2022-11-23T03:41:56;8.30;99.90
26703;DHT22;14316;51.074;3.704;2022-11-23T03:44:22;8.40;99.90
26703;DHT22;14316;51.074;3.704;2022-11-23T03:46:48;8.40;99.90
26703;DHT22;14316;51.074;3.704;2022-11-23T03:49:15;8.30;99.90
26703;DHT22;14316;51.074;3.704;2022-11-23T03:51:40;8.30;99.90
26703;DHT22;14316;51.074;3.704;2022-11-23T03:54:06;8.20;99.90
26703;DHT22;14316;51.074;3.704;2022-11-23T03:56:32;8.40;99.90
26703;DHT22;14316;51.074;3.704;2022-11-23T03:58:58;8.40;99.90
26703;DHT22;14316;51.074;3.704;2022-11-23T04:01:24;8.40;99.90
26703;DHT22;14316;51.074;3.704;2022-11-23T04:03:50;8.30;99.90
26703;DHT22;14316;51.074;3.704;2022-11-23T04:06:16;8.40;99.90
26703;DHT22;14316;51.074;3.704;2022-11-23T04:08:42;8.60;99.90
26703;DHT22;14316;51.074;3.704;2022-11-23T04:11:08;8.30;99.90
26703;DHT22;14316;51.074;3.704;2022-11-23T04:13:34;8.20;99.90
26703;DHT22;14316;51.074;3.704;2022-11-23T04:15:59;8.30;99.90
26703;DHT22;14316;51.074;3.704;2022-11-23T04:18:25;8.40;99.90
26703;DHT22;14316;51.074;3.704;2022-11-23T04:20:51;8.40;99.90
26703;DHT22;14316;51.074;3.704;2022-11-23T04:23:17;8.50;99.90
26703;DHT22;14316;51.074;3.704;2022-11-23T04:25:44;8.30;99.90
26703;DHT22;14316;51.074;3.704;2022-11-23T04:28:10;8.80;99.90
26703;DHT22;14316;51.074;3.704;2022-11-23T04:30:35;8.70;99.90
26703;DHT22;14316;51.074;3.704;2022-11-23T04:33:01;8.60;99.90
26703;DHT22;14316;51.074;3.704;2022-11-23T04:35:27;8.50;99.90
26703;DHT22;14316;51.074;3.704;2022-11-23T04:37:53;8.50;99.90
26703;DHT22;14316;51.074;3.704;2022-11-23T04:40:18;8.40;99.90
26703;DHT22;14316;51.074;3.704;2022-11-23T04:42:44;8.30;99.90
26703;DHT22;14316;51.074;3.704;2022-11-23T04:45:10;8.40;99.90
26703;DHT22;14316;51.074;3.704;2022-11-23T04:47:36;8.40;99.90
26703;DHT22;14316;51.074;3.704;2022-11-23T04:50:02;8.50;99.90
26703;DHT22;14316;51.074;3.704;2022-11-23T04:52:28;8.40;99.90
26703;DHT22;14316;51.074;3.704;2022-11-23T04:54:54;8.50;99.90
26703;DHT22;14316;51.074;3.704;2022-11-23T04:57:20;8.60;99.90
26703;DHT22;14316;51.074;3.704;2022-11-23T04:59:45;8.60;99.90
26703;DHT22;14316;51.074;3.704;2022-11-23T05:02:11;8.50;99.90
26703;DHT22;14316;51.074;3.704;2022-11-23T05:04:37;8.50;99.90
26703;DHT22;14316;51.074;3.704;2022-11-23T05:07:03;8.50;99.90
26703;DHT22;14316;51.074;3.704;2022-11-23T05:09:29;8.50;99.90
26703;DHT22;14316;51.074;3.704;2022-11-23T05:11:54;8.50;99.90
26703;DHT22;14316;51.074;3.704;2022-11-23T05:14:21;8.50;99.90
26703;DHT22;14316;51.074;3.704;2022-11-23T05:16:46;8.60;99.90
26703;DHT22;14316;51.074;3.704;2022-11-23T05:19:12;8.70;99.90
26703;DHT22;14316;51.074;3.704;2022-11-23T05:21:38;8.70;99.90
26703;DHT22;14316;51.074;3.704;2022-11-23T05:24:04;8.70;99.90
26703;DHT22;14316;51.074;3.704;2022-11-23T05:26:30;8.70;99.90
26703;DHT22;14316;51.074;3.704;2022-11-23T05:28:55;8.70;99.90
26703;DHT22;14316;51.074;3.704;2022-11-23T05:31:21;8.60;99.90
26703;DHT22;14316;51.074;3.704;2022-11-23T05:33:47;8.60;99.90
26703;DHT22;14316;51.074;3.704;2022-11-23T05:36:13;8.60;99.90
26703;DHT22;14316;51.074;3.704;2022-11-23T05:38:40;8.70;99.90
26703;DHT22;14316;51.074;3.704;2022-11-23T05:41:06;8.80;99.90
26703;DHT22;14316;51.074;3.704;2022-11-23T05:43:32;9.10;99.90
26703;DHT22;14316;51.074;3.704;2022-11-23T05:45:59;9.00;99.90
26703;DHT22;14316;51.074;3.704;2022-11-23T05:48:24;9.10;99.90
26703;DHT22;14316;51.074;3.704;2022-11-23T05:50:51;9.10;99.90
26703;DHT22;14316;51.074;3.704;2022-11-23T05:53:17;8.90;99.90
26703;DHT22;14316;51.074;3.704;2022-11-23T05:55:42;8.80;99.90
26703;DHT22;14316;51.074;3.704;2022-11-23T05:58:08;8.70;99.90
26703;DHT22;14316;51.074;3.704;2022-11-23T06:00:34;8.60;99.90
26703;DHT22;14316;51.074;3.704;2022-11-23T06:03:01;8.50;99.90
26703;DHT22;14316;51.074;3.704;2022-11-23T06:05:27;8.40;99.90
26703;DHT22;14316;51.074;3.704;2022-11-23T06:07:53;8.30;99.90
26703;DHT22;14316;51.074;3.704;2022-11-23T06:10:19;8.00;99.90
26703;DHT22;14316;51.074;3.704;2022-11-23T06:12:45;7.90;99.90
26703;DHT22;14316;51.074;3.704;2022-11-23T06:15:12;7.70;99.90
26703;DHT22;14316;51.074;3.704;2022-11-23T06:17:37;7.60;99.90
26703;DHT22;14316;51.074;3.704;2022-11-23T06:20:07;7.50;99.90
26703;DHT22;14316;51.074;3.704;2022-11-23T06:22:33;7.50;99.90
26703;DHT22;14316;51.074;3.704;2022-11-23T06:24:59;7.60;99.90
26703;DHT22;14316;51.074;3.704;2022-11-23T06:27:25;7.50;99.90
26703;DHT22;14316;51.074;3.704;2022-11-23T06:29:51;7.60;99.90
26703;DHT22;14316;51.074;3.704;2022-11-23T06:32:17;7.80;99.90
26703;DHT22;14316;51.074;3.704;2022-11-23T06:34:43;7.80;99.90
26703;DHT22;14316;51.074;3.704;2022-11-23T06:37:09;7.80;99.90
26703;DHT22;14316;51.074;3.704;2022-11-23T06:39:36;7.90;99.90
26703;DHT22;14316;51.074;3.704;2022-11-23T06:42:01;7.80;99.90
26703;DHT22;14316;51.074;3.704;2022-11-23T06:44:28;7.70;99.90
26703;DHT22;14316;51.074;3.704;2022-11-23T06:46:54;7.50;99.90
26703;DHT22;14316;51.074;3.704;2022-11-23T06:49:19;7.60;99.90
26703;DHT22;14316;51.074;3.704;2022-11-23T06:51:46;7.30;99.90
26703;DHT22;14316;51.074;3.704;2022-11-23T06:54:12;7.30;99.90
26703;DHT22;14316;51.074;3.704;2022-11-23T06:56:38;7.30;99.90
26703;DHT22;14316;51.074;3.704;2022-11-23T06:59:04;7.00;99.90
26703;DHT22;14316;51.074;3.704;2022-11-23T07:01:29;7.20;99.90
26703;DHT22;14316;51.074;3.704;2022-11-23T07:03:57;7.10;99.90
26703;DHT22;14316;51.074;3.704;2022-11-23T07:06:22;7.20;99.90
26703;DHT22;14316;51.074;3.704;2022-11-23T07:08:48;7.30;99.90
26703;DHT22;14316;51.074;3.704;2022-11-23T07:11:14;7.40;99.90
26703;DHT22;14316;51.074;3.704;2022-11-23T07:13:40;7.50;99.90
26703;DHT22;14316;51.074;3.704;2022-11-23T07:16:06;7.50;99.90
26703;DHT22;14316;51.074;3.704;2022-11-23T07:18:32;7.60;99.90
26703;DHT22;14316;51.074;3.704;2022-11-23T07:20:58;7.60;99.90
26703;DHT22;14316;51.074;3.704;2022-11-23T07:23:25;7.60;99.90
26703;DHT22;14316;51.074;3.704;2022-11-23T07:25:51;7.90;99.90
26703;DHT22;14316;51.074;3.704;2022-11-23T07:28:17;7.80;99.90
26703;DHT22;14316;51.074;3.704;2022-11-23T07:30:43;7.60;99.90
26703;DHT22;14316;51.074;3.704;2022-11-23T07:33:11;7.80;99.90
26703;DHT22;14316;51.074;3.704;2022-11-23T07:35:38;7.60;99.90
26703;DHT22;14316;51.074;3.704;2022-11-23T07:38:05;7.50;99.90
26703;DHT22;14316;51.074;3.704;2022-11-23T07:40:33;7.20;99.90
26703;DHT22;14316;51.074;3.704;2022-11-23T07:43:00;7.10;99.90
26703;DHT22;14316;51.074;3.704;2022-11-23T07:45:27;7.00;99.90
26703;DHT22;14316;51.074;3.704;2022-11-23T07:48:00;7.20;99.90
26703;DHT22;14316;51.074;3.704;2022-11-23T07:50:27;7.00;99.90
26703;DHT22;14316;51.074;3.704;2022-11-23T07:52:54;7.10;99.90
26703;DHT22;14316;51.074;3.704;2022-11-23T07:55:20;7.00;99.90
26703;DHT22;14316;51.074;3.704;2022-11-23T07:57:46;7.10;99.90
26703;DHT22;14316;51.074;3.704;2022-11-23T08:00:12;7.20;99.90
26703;DHT22;14316;51.074;3.704;2022-11-23T08:02:39;7.20;99.90
26703;DHT22;14316;51.074;3.704;2022-11-23T08:05:05;7.40;99.90
26703;DHT22;14316;51.074;3.704;2022-11-23T08:07:31;7.50;99.90
26703;DHT22;14316;51.074;3.704;2022-11-23T08:09:57;7.60;99.90
26703;DHT22;14316;51.074;3.704;2022-11-23T08:12:22;7.70;99.90
26703;DHT22;14316;51.074;3.704;2022-11-23T08:14:48;7.60;99.90
26703;DHT22;14316;51.074;3.704;2022-11-23T08:17:14;7.70;99.90
26703;DHT22;14316;51.074;3.704;2022-11-23T08:19:40;7.80;99.90
26703;DHT22;14316;51.074;3.704;2022-11-23T08:22:05;8.00;99.90
26703;DHT22;14316;51.074;3.704;2022-11-23T08:24:31;8.10;99.90
26703;DHT22;14316;51.074;3.704;2022-11-23T08:26:57;8.30;99.90
26703;DHT22;14316;51.074;3.704;2022-11-23T08:29:23;8.20;99.90
26703;DHT22;14316;51.074;3.704;2022-11-23T08:31:50;8.50;99.90
26703;DHT22;14316;51.074;3.704;2022-11-23T08:34:15;7.90;99.90
26703;DHT22;14316;51.074;3.704;2022-11-23T08:36:43;7.90;99.90
26703;DHT22;14316;51.074;3.704;2022-11-23T08:39:09;8.00;99.90
26703;DHT22;14316;51.074;3.704;2022-11-23T08:41:39;7.90;99.90
26703;DHT22;14316;51.074;3.704;2022-11-23T08:44:05;8.00;99.90
26703;DHT22;14316;51.074;3.704;2022-11-23T08:46:32;8.10;99.90
26703;DHT22;14316;51.074;3.704;2022-11-23T08:48:58;8.10;99.90
26703;DHT22;14316;51.074;3.704;2022-11-23T08:51:24;8.10;99.90
26703;DHT22;14316;51.074;3.704;2022-11-23T08:53:50;8.10;99.90
26703;DHT22;14316;51.074;3.704;2022-11-23T08:56:17;8.40;99.90
26703;DHT22;14316;51.074;3.704;2022-11-23T08:58:42;8.20;99.90
26703;DHT22;14316;51.074;3.704;2022-11-23T09:01:13;8.20;99.90
26703;DHT22;14316;51.074;3.704;2022-11-23T09:03:39;8.30;99.90
26703;DHT22;14316;51.074;3.704;2022-11-23T09:06:06;8.50;99.90
26703;DHT22;14316;51.074;3.704;2022-11-23T09:08:32;8.50;99.90
26703;DHT22;14316;51.074;3.704;2022-11-23T09:11:01;8.70;99.90
26703;DHT22;14316;51.074;3.704;2022-11-23T09:13:28;8.80;99.90
26703;DHT22;14316;51.074;3.704;2022-11-23T09:16:01;8.80;99.90
26703;DHT22;14316;51.074;3.704;2022-11-23T09:18:28;9.00;99.90
26703;DHT22;14316;51.074;3.704;2022-11-23T09:20:57;8.90;99.90
26703;DHT22;14316;51.074;3.704;2022-11-23T09:23:23;9.10;99.90
26703;DHT22;14316;51.074;3.704;2022-11-23T09:25:51;9.30;99.90
26703;DHT22;14316;51.074;3.704;2022-11-23T09:28:18;9.40;99.90
26703;DHT22;14316;51.074;3.704;2022-11-23T09:30:45;9.30;99.90
26703;DHT22;14316;51.074;3.704;2022-11-23T09:33:12;9.40;99.90
26703;DHT22;14316;51.074;3.704;2022-11-23T09:35:37;9.30;99.90
26703;DHT22;14316;51.074;3.704;2022-11-23T09:38:03;9.30;99.90
26703;DHT22;14316;51.074;3.704;2022-11-23T09:40:36;9.40;99.90
26703;DHT22;14316;51.074;3.704;2022-11-23T09:45:49;9.60;99.90
26703;DHT22;14316;51.074;3.704;2022-11-23T09:51:20;9.50;99.90
26703;DHT22;14316;51.074;3.704;2022-11-23T09:53:52;9.90;99.90
26703;DHT22;14316;51.074;3.704;2022-11-23T09:56:24;9.90;99.90
26703;DHT22;14316;51.074;3.704;2022-11-23T09:58:54;10.00;99.90
26703;DHT22;14316;51.074;3.704;2022-11-23T10:01:20;9.90;99.90
26703;DHT22;14316;51.074;3.704;2022-11-23T10:03:47;9.90;99.90
26703;DHT22;14316;51.074;3.704;2022-11-23T10:06:20;9.80;99.90
26703;DHT22;14316;51.074;3.704;2022-11-23T10:09:15;9.70;99.90
26703;DHT22;14316;51.074;3.704;2022-11-23T10:20:10;10.00;99.90
26703;DHT22;14316;51.074;3.704;2022-11-23T10:23:05;10.20;99.90
26703;DHT22;14316;51.074;3.704;2022-11-23T10:25:37;10.00;99.90
26703;DHT22;14316;51.074;3.704;2022-11-23T10:28:11;10.30;99.90
26703;DHT22;14316;51.074;3.704;2022-11-23T10:30:38;10.30;99.90
26703;DHT22;14316;51.074;3.704;2022-11-23T10:33:37;10.40;99.90
26703;DHT22;14316;51.074;3.704;2022-11-23T10:36:04;10.40;99.90
26703;DHT22;14316;51.074;3.704;2022-11-23T10:38:31;10.30;99.90
26703;DHT22;14316;51.074;3.704;2022-11-23T10:41:08;10.00;99.90
26703;DHT22;14316;51.074;3.704;2022-11-23T10:46:31;9.90;99.90
26703;DHT22;14316;51.074;3.704;2022-11-23T10:51:57;10.10;99.90
26703;DHT22;14316;51.074;3.704;2022-11-23T10:54:27;10.20;99.90
26703;DHT22;14316;51.074;3.704;2022-11-23T10:56:54;10.20;99.90
26703;DHT22;14316;51.074;3.704;2022-11-23T10:59:37;10.20;99.90
26703;DHT22;14316;51.074;3.704;2022-11-23T11:02:18;10.40;99.90
26703;DHT22;14316;51.074;3.704;2022-11-23T11:04:45;10.40;99.90
26703;DHT22;14316;51.074;3.704;2022-11-23T11:07:33;10.50;99.90
26703;DHT22;14316;51.074;3.704;2022-11-23T11:10:02;10.60;99.90
26703;DHT22;14316;51.074;3.704;2022-11-23T11:12:32;10.60;99.90
26703;DHT22;14316;51.074;3.704;2022-11-23T11:15:19;10.80;99.90
26703;DHT22;14316;51.074;3.704;2022-11-23T11:17:56;10.70;99.90
26703;DHT22;14316;51.074;3.704;2022-11-23T11:20:28;10.70;99.90
26703;DHT22;14316;51.074;3.704;2022-11-23T11:23:03;10.60;99.90
26703;DHT22;14316;51.074;3.704;2022-11-23T11:25:34;10.40;99.90
26703;DHT22;14316;51.074;3.704;2022-11-23T11:28:02;10.20;99.90
26703;DHT22;14316;51.074;3.704;2022-11-23T11:30:44;10.40;99.90
26703;DHT22;14316;51.074;3.704;2022-11-23T11:33:16;10.20;99.90
26703;DHT22;14316;51.074;3.704;2022-11-23T11:35:48;10.20;99.90
26703;DHT22;14316;51.074;3.704;2022-11-23T11:38:31;10.20;99.90
26703;DHT22;14316;51.074;3.704;2022-11-23T11:41:01;10.10;99.90
26703;DHT22;14316;51.074;3.704;2022-11-23T11:43:43;10.00;99.90
26703;DHT22;14316;51.074;3.704;2022-11-23T11:46:20;9.90;99.90
26703;DHT22;14316;51.074;3.704;2022-11-23T11:48:56;9.90;99.90
26703;DHT22;14316;51.074;3.704;2022-11-23T11:51:33;9.40;99.90
26703;DHT22;14316;51.074;3.704;2022-11-23T11:54:20;9.20;99.90
26703;DHT22;14316;51.074;3.704;2022-11-23T11:56:56;9.00;99.90
26703;DHT22;14316;51.074;3.704;2022-11-23T11:59:35;9.00;99.90
26703;DHT22;14316;51.074;3.704;2022-11-23T12:02:35;9.00;99.90
26703;DHT22;14316;51.074;3.704;2022-11-23T12:10:52;8.70;99.90
26703;DHT22;14316;51.074;3.704;2022-11-23T12:13:32;8.70;99.90
26703;DHT22;14316;51.074;3.704;2022-11-23T12:29:52;8.40;99.90
26703;DHT22;14316;51.074;3.704;2022-11-23T12:38:28;8.70;99.90
26703;DHT22;14316;51.074;3.704;2022-11-23T12:41:10;8.90;99.90
26703;DHT22;14316;51.074;3.704;2022-11-23T12:44:02;8.90;99.90
26703;DHT22;14316;51.074;3.704;2022-11-23T12:49:51;9.00;99.90
26703;DHT22;14316;51.074;3.704;2022-11-23T12:52:43;9.10;99.90
26703;DHT22;14316;51.074;3.704;2022-11-23T12:57:57;8.80;99.90
26703;DHT22;14316;51.074;3.704;2022-11-23T13:00:26;8.90;99.90
26703;DHT22;14316;51.074;3.704;2022-11-23T13:16:37;8.90;99.90
26703;DHT22;14316;51.074;3.704;2022-11-23T13:19:09;8.80;99.90
26703;DHT22;14316;51.074;3.704;2022-11-23T13:21:43;8.60;99.90
26703;DHT22;14316;51.074;3.704;2022-11-23T13:34:59;8.60;99.90
26703;DHT22;14316;51.074;3.704;2022-11-23T13:37:25;8.50;99.90
26703;DHT22;14316;51.074;3.704;2022-11-23T13:42:24;8.30;99.90
26703;DHT22;14316;51.074;3.704;2022-11-23T13:45:20;8.40;99.90
26703;DHT22;14316;51.074;3.704;2022-11-23T13:48:19;8.20;99.90
26703;DHT22;14316;51.074;3.704;2022-11-23T13:53:38;8.10;99.90
26703;DHT22;14316;51.074;3.704;2022-11-23T13:56:25;8.10;99.90
26703;DHT22;14316;51.074;3.704;2022-11-23T14:32:00;8.60;99.90
26703;DHT22;14316;51.074;3.704;2022-11-23T14:34:38;8.80;99.90
26703;DHT22;14316;51.074;3.704;2022-11-23T14:37:21;8.90;99.90
26703;DHT22;14316;51.074;3.704;2022-11-23T14:42:21;9.10;99.90
26703;DHT22;14316;51.074;3.704;2022-11-23T14:44:48;9.20;99.90
26703;DHT22;14316;51.074;3.704;2022-11-23T14:47:33;9.30;99.90
26703;DHT22;14316;51.074;3.704;2022-11-23T14:49:58;9.30;99.90
26703;DHT22;14316;51.074;3.704;2022-11-23T14:52:30;9.50;99.90
26703;DHT22;14316;51.074;3.704;2022-11-23T14:54:59;9.30;99.90
26703;DHT22;14316;51.074;3.704;2022-11-23T14:57:38;9.20;99.90
26703;DHT22;14316;51.074;3.704;2022-11-23T15:00:05;9.30;99.90
26703;DHT22;14316;51.074;3.704;2022-11-23T15:02:38;9.20;99.90
26703;DHT22;14316;51.074;3.704;2022-11-23T15:05:20;9.10;99.90
26703;DHT22;14316;51.074;3.704;2022-11-23T15:13:20;9.00;99.90
26703;DHT22;14316;51.074;3.704;2022-11-23T15:15:48;8.90;99.90
26703;DHT22;14316;51.074;3.704;2022-11-23T15:18:29;8.90;99.90
26703;DHT22;14316;51.074;3.704;2022-11-23T15:20:57;8.80;99.90
26703;DHT22;14316;51.074;3.704;2022-11-23T15:23:29;8.70;99.90
26703;DHT22;14316;51.074;3.704;2022-11-23T15:26:03;9.30;99.90
26703;DHT22;14316;51.074;3.704;2022-11-23T15:28:31;8.60;99.90
26703;DHT22;14316;51.074;3.704;2022-11-23T15:30:58;8.60;99.90
26703;DHT22;14316;51.074;3.704;2022-11-23T15:33:24;8.60;99.90
26703;DHT22;14316;51.074;3.704;2022-11-23T15:35:52;9.10;99.90
26703;DHT22;14316;51.074;3.704;2022-11-23T15:38:18;8.60;99.90
26703;DHT22;14316;51.074;3.704;2022-11-23T15:40:46;8.50;99.90
26703;DHT22;14316;51.074;3.704;2022-11-23T15:43:19;8.50;99.90
26703;DHT22;14316;51.074;3.704;2022-11-23T15:48:28;8.50;99.90
26703;DHT22;14316;51.074;3.704;2022-11-23T15:51:03;8.40;99.90
26703;DHT22;14316;51.074;3.704;2022-11-23T15:53:32;8.50;99.90
26703;DHT22;14316;51.074;3.704;2022-11-23T15:56:03;8.40;99.90
26703;DHT22;14316;51.074;3.704;2022-11-23T15:58:30;8.50;99.90
26703;DHT22;14316;51.074;3.704;2022-11-23T16:01:10;8.40;99.90
26703;DHT22;14316;51.074;3.704;2022-11-23T16:03:40;8.40;99.90
26703;DHT22;14316;51.074;3.704;2022-11-23T16:08:36;8.30;99.90
26703;DHT22;14316;51.074;3.704;2022-11-23T16:11:02;8.30;99.90
26703;DHT22;14316;51.074;3.704;2022-11-23T16:13:37;8.30;99.90
26703;DHT22;14316;51.074;3.704;2022-11-23T16:16:07;8.30;99.90
26703;DHT22;14316;51.074;3.704;2022-11-23T16:18:34;8.30;99.90
26703;DHT22;14316;51.074;3.704;2022-11-23T16:21:02;8.20;99.90
26703;DHT22;14316;51.074;3.704;2022-11-23T16:23:50;8.30;99.90
26703;DHT22;14316;51.074;3.704;2022-11-23T16:26:18;8.30;99.90
26703;DHT22;14316;51.074;3.704;2022-11-23T16:28:50;8.30;99.90
26703;DHT22;14316;51.074;3.704;2022-11-23T16:31:35;8.20;99.90
26703;DHT22;14316;51.074;3.704;2022-11-23T16:34:01;8.20;99.90
26703;DHT22;14316;51.074;3.704;2022-11-23T16:36:27;8.20;99.90
26703;DHT22;14316;51.074;3.704;2022-11-23T16:38:54;8.20;99.90
26703;DHT22;14316;51.074;3.704;2022-11-23T16:41:20;8.20;99.90
26703;DHT22;14316;51.074;3.704;2022-11-23T16:43:51;8.40;99.90
26703;DHT22;14316;51.074;3.704;2022-11-23T16:46:18;8.20;99.90
26703;DHT22;14316;51.074;3.704;2022-11-23T16:48:44;8.50;99.90
26703;DHT22;14316;51.074;3.704;2022-11-23T16:51:10;8.20;99.90
26703;DHT22;14316;51.074;3.704;2022-11-23T16:53:40;8.20;99.90
26703;DHT22;14316;51.074;3.704;2022-11-23T16:56:08;8.20;99.90
26703;DHT22;14316;51.074;3.704;2022-11-23T16:58:35;8.20;99.90
26703;DHT22;14316;51.074;3.704;2022-11-23T17:01:01;8.20;99.90
26703;DHT22;14316;51.074;3.704;2022-11-23T17:03:27;8.60;99.90
26703;DHT22;14316;51.074;3.704;2022-11-23T17:05:53;8.20;99.90
26703;DHT22;14316;51.074;3.704;2022-11-23T17:08:19;8.20;99.90
26703;DHT22;14316;51.074;3.704;2022-11-23T17:10:45;8.20;99.90
26703;DHT22;14316;51.074;3.704;2022-11-23T17:13:21;8.40;99.90
26703;DHT22;14316;51.074;3.704;2022-11-23T17:15:50;8.20;99.90
26703;DHT22;14316;51.074;3.704;2022-11-23T17:18:16;8.20;99.90
26703;DHT22;14316;51.074;3.704;2022-11-23T17:20:43;8.40;99.90
26703;DHT22;14316;51.074;3.704;2022-11-23T17:23:09;8.40;99.90
26703;DHT22;14316;51.074;3.704;2022-11-23T17:25:35;8.20;99.90
26703;DHT22;14316;51.074;3.704;2022-11-23T17:28:03;8.30;99.90
26703;DHT22;14316;51.074;3.704;2022-11-23T17:30:29;8.30;99.90
26703;DHT22;14316;51.074;3.704;2022-11-23T17:32:57;8.40;99.90
26703;DHT22;14316;51.074;3.704;2022-11-23T17:35:24;8.40;99.90
26703;DHT22;14316;51.074;3.704;2022-11-23T17:37:50;8.70;99.90
26703;DHT22;14316;51.074;3.704;2022-11-23T17:40:18;8.50;99.90
26703;DHT22;14316;51.074;3.704;2022-11-23T17:42:44;8.50;99.90
26703;DHT22;14316;51.074;3.704;2022-11-23T17:45:11;8.50;99.90
26703;DHT22;14316;51.074;3.704;2022-11-23T17:47:42;8.50;99.90
26703;DHT22;14316;51.074;3.704;2022-11-23T17:50:13;8.60;99.90
26703;DHT22;14316;51.074;3.704;2022-11-23T17:52:45;8.50;99.90
26703;DHT22;14316;51.074;3.704;2022-11-23T17:55:12;8.60;99.90
26703;DHT22;14316;51.074;3.704;2022-11-23T17:57:39;8.50;99.90
26703;DHT22;14316;51.074;3.704;2022-11-23T18:00:20;8.50;99.90
26703;DHT22;14316;51.074;3.704;2022-11-23T18:02:47;8.50;99.90
26703;DHT22;14316;51.074;3.704;2022-11-23T18:05:13;8.40;99.90
26703;DHT22;14316;51.074;3.704;2022-11-23T18:07:39;8.40;99.90
26703;DHT22;14316;51.074;3.704;2022-11-23T18:10:07;8.40;99.90
26703;DHT22;14316;51.074;3.704;2022-11-23T18:12:33;8.40;99.90
26703;DHT22;14316;51.074;3.704;2022-11-23T18:14:59;8.30;99.90